首页
METAR-TAF:

METAR-TAF

机场 :

卡馬圭, 古巴

纬度: 21-25N, 经度: 077-51W, 海拔: 122米

当前天气观测

该预报发布于47分钟前的15:50 UTC
风速11节,风向东转东北,在北转东北之间变化
温度 32°C
湿度 63%
气压 1018 hPa
能見度: 9000
散云层高于2000英尺

METAR: MUCM 211550Z 06011KT 030V090 9000 SCT020 32/24 Q1018

时间: 12:37 (16:37 UTC)

预报

该预报发布于5小时和37分钟前的11:00 UTC
预报有效从21日的 12点(UTC)到 22日的 12点(UTC)
风速4节,风向多变
能見度: 9000
散云层高于2000英尺
成为
从 21日的 13点(UTC)到 21日的 15点(UTC)
风速7节,风向
短暂存在
从 21日的 18点(UTC)到 21日的 24点(UTC)
风速10节,风向多变
能見度: 5000
散云层高于1800英尺, 积雨云.
多云层高于2000英尺
雷暴, 雨
成为
从 22日的 01点(UTC)到 22日的 03点(UTC)
风速4节,风向多变

TAF: MUCM 211100Z 2112/2212 VRB04KT 9000 SCT020 BECMG 2113/2115 09007KT TEMPO 2118/2124 VRB10KT 5000 TSRA SCT018CB BKN020 BECMG 2201/2203 VRB04KT

超过4000个机场的气象观测和天气预报(METAR&TAF报告)。

可查询的气象台以黄色和红色小点在地图上表示。

将鼠标移到小点上方,可查看气象台名称。

然后点击查看天气观测和预报。

如需切换地图:点击带黑十字的绿色按钮放大地图;点击带横线的绿色按钮缩小地图;或者点击绿色箭头查看邻近地区的地图。


METAR-TAF: